Murray Bridge Post Office, South Australia

5:41 AM ACST on September 20, 2014 (GMT +0930)
Wellington East | Change Station
CLOSE
Current Station
Personal Weather Station
Location: WELLINGTON EAST, SOUTH AUSTRALIA
Elevation: 20 ft
Nearby Weather Stations

Elev 20 ft 35.32 °S, 139.39 °E | Updated 25 seconds ago

Clear
Clear
40.3 °F
Feels Like 40 °F
N
0.0
Wind Variable Wind from West
Gusts 0.0 mph

Today
High -- | Low -- °F
--% Chance of Precip.
Yesterday
High -- | Low -- °F
Precip. -- in
6:06 AM 6:07 PM
Waning Crescent, 17% visible
Pressure 30.24 in
Visibility -9999.0 miles
Clouds
Windchill 40 °F
Dew Point 38 °F
Humidity 91%
Rainfall 0.00 in
Snow Depth Not available.
UV 0.0 out of 12
Pollen Not available.
Air Quality Not available.
Flu Activity Not available.
METAR YPAD 192000Z 04006KT CAVOK 10/00 Q1024 NOSIG

More Conditions Fewer Conditions

Pressure 30.24 in
Visibility -9999.0 miles
Clouds
Windchill 40 °F
Dew Point 38 °F
Humidity 91%
Rainfall 0.00 in
Snow Depth Not available.
UV 0.0 out of 12
Pollen Not available.
Air Quality Not available.
Flu Activity Not available.
METAR YPAD 192000Z 04006KT CAVOK 10/00 Q1024 NOSIG

More Conditions Fewer Conditions

10-Day Weather Forecast

Almanac

Astronomy

Sep. 20, 2014 Rise Set
Actual Time 6:06 AM ACST 6:07 PM ACST
Civil Twilight 5:40 AM ACST 6:32 PM ACST
Nautical Twilight 5:11 AM ACST 7:02 PM ACST
Astronomical Twilight 4:41 AM ACST 7:32 PM ACST
Moon 3:32 AM ACST (9/20) 2:36 PM ACST (9/20)
Length of Visible Light 12h 51m
Length of Day
12h 01m
Tomorrow will be 2m 12s longer.
Waning Crescent, 17% of the Moon is Illuminated
Sep 19
Waning Crescent
Sep 24
New
Oct 1
First Quarter
Oct 8
Full
Oct 15
Last Quarter

Yesterday's Extremes

Country Highs Country Lows

Community

WunderPhotos

Upload Photos

1,754,692 photos uploaded!

WunderBlogs® & News

By Dr. Jeff Masters
Director of Meteorology, Weather Underground
By Kari Strenfel
Meteorologist, Weather Underground
By Christopher C. Burt
Weather Historian, Weather Underground
September 19, 2014
September 19, 2014
September 19, 2014

Nearby

Snow Depth

Not available.

Earthquake Activity

City Distance Mag. Time & Date
No recent earthquake activity has been reported nearby.
Minimum magnitude displayed is 2.5.

Coastal Water Temperatures

Place Temperature
No Stations Reporting

Nearby Weather Stations